TimeMST,TemperatureF,Dew PointF,Humidity,Sea Level PressureIn,VisibilityMPH,Wind Direction,Wind SpeedMPH,Gust SpeedMPH,PrecipitationIn,Events,Conditions,WindDirDegrees,DateUTC
12:54 AM,28.0,9.0,45,30.04,10.0,SSE,8.1,-,N/A,,Clear,150,2013-03-06 07:54:00
1:54 AM,26.1,8.1,47,30.04,10.0,South,8.1,-,N/A,,Clear,170,2013-03-06 08:54:00
2:54 AM,23.0,9.0,55,30.02,10.0,Calm,Calm,-,N/A,,Clear,0,2013-03-06 09:54:00
3:54 AM,28.0,10.9,49,29.97,10.0,SSE,8.1,-,N/A,,Clear,150,2013-03-06 10:54:00
4:54 AM,27.0,10.9,51,29.97,10.0,SE,3.5,-,N/A,,Clear,130,2013-03-06 11:54:00
5:54 AM,30.0,12.9,49,29.96,10.0,SSE,10.4,-,N/A,,Clear,150,2013-03-06 12:54:00
6:54 AM,28.9,12.9,51,29.96,10.0,South,6.9,-,N/A,,Clear,170,2013-03-06 13:54:00
7:54 AM,36.0,15.1,43,29.96,10.0,South,5.8,-,N/A,,Clear,170,2013-03-06 14:54:00
8:54 AM,41.0,15.1,35,29.92,10.0,South,4.6,-,N/A,,Clear,190,2013-03-06 15:54:00
9:54 AM,43.0,17.1,35,29.89,10.0,SW,9.2,-,N/A,,Clear,230,2013-03-06 16:54:00
10:54 AM,45.0,17.1,33,29.84,10.0,SSW,25.3,32.2,N/A,,Partly Cloudy,200,2013-03-06 17:54:00
11:54 AM,46.0,16.0,30,29.84,10.0,South,20.7,28.8,N/A,,Clear,180,2013-03-06 18:54:00
12:54 PM,50.0,16.0,26,29.79,10.0,SSW,20.7,29.9,N/A,,Clear,200,2013-03-06 19:54:00
1:54 PM,50.0,16.0,26,29.76,10.0,SSW,28.8,36.8,N/A,,Clear,200,2013-03-06 20:54:00
2:54 PM,50.0,17.1,27,29.78,10.0,SSW,26.5,33.4,N/A,,Clear,200,2013-03-06 21:54:00
3:54 PM,46.9,17.1,30,29.78,10.0,South,23.0,29.9,N/A,,Clear,180,2013-03-06 22:54:00
4:54 PM,46.0,18.0,33,29.78,10.0,SSW,15.0,-,N/A,,Clear,200,2013-03-06 23:54:00
5:54 PM,43.0,17.1,35,29.79,10.0,SSW,17.3,-,N/A,,Scattered Clouds,200,2013-03-07 00:54:00
6:54 PM,39.9,18.0,41,29.84,10.0,SW,12.7,-,N/A,,Overcast,220,2013-03-07 01:54:00
7:54 PM,37.0,18.0,46,29.81,10.0,SW,5.8,-,N/A,,Clear,220,2013-03-07 02:54:00
8:54 PM,37.9,19.0,47,29.78,10.0,SW,11.5,-,N/A,,Clear,230,2013-03-07 03:54:00
9:54 PM,39.9,18.0,41,29.75,10.0,SW,19.6,-,N/A,,Clear,220,2013-03-07 04:54:00
10:54 PM,39.0,19.0,45,29.78,10.0,SW,15.0,-,N/A,,Clear,220,2013-03-07 05:54:00
11:10 PM,37.4,19.4,48,29.87,10.0,NW,6.9,-,N/A,,Partly Cloudy,310,2013-03-07 06:10:00
11:54 PM,35.1,21.0,57,29.82,10.0,NW,6.9,-,N/A,,Clear,320,2013-03-07 06:54:00